Terminal Aerodrome Forecast
Issued by NWS

Home | Current Version | Previous Version | Text Only | Print | Product List | Glossary On
Versions: 1 2 3 4 5 6 7 8 9 10 11 12 13 14 15 16 17 18 19 20 21 22 23 24 25 26
298
FTUS41 KOKX 280533
TAFSWF
TAF
KSWF 280533Z 2806/2912 08008KT 6SM BR OVC015
     FM280800 VRB05KT 4SM BR OVC015
     FM281300 VRB03KT 6SM BR BKN020
     FM281500 18005KT P6SM SCT025 BKN035
     FM281800 21007KT P6SM SCT035 SCT250
     FM290300 VRB03KT 6SM BR SCT250
     FM290700 VRB03KT 2SM BR OVC008
      AMD NOT SKED=

USA.gov is the U.S. government's official web portal to all federal, state and local government web resources and services.